< Cyclone 197013 1971 Season Cyclone 197102 >
Cyclone 197101 (ANDREA)
General InformationTrack Information on Google Maps || ResourceGoogle EarthGE AnimationAtom FeedGeoJSON
Detalied Best Track (Time Zone = UTC)
Year Month Day Hour Lat. Long. Pressure (hPa) Wind (kt) Class Image Chart
1970 10 31 00 -8.9 87.0 1006 0 0 -- --
1970 10 31 03 -8.9 87.1 1006 0 0 -- --
1970 10 31 06 -9.0 87.2 1006 0 0 -- --
1970 10 31 09 -9.0 87.3 1006 0 0 -- --
1970 10 31 12 -9.1 87.4 1006 0 0 -- --
1970 10 31 15 -9.2 87.5 1006 0 0 -- --
1970 10 31 18 -9.2 87.7 1006 0 0 -- --
1970 10 31 21 -9.3 87.9 1006 0 0 -- --
1970 11 1 00 -9.4 88.0 1006 0 0 -- --
1970 11 1 03 -9.5 88.2 1006 0 0 -- --
1970 11 1 06 -9.6 88.4 1005 0 0 -- --
1970 11 1 09 -9.7 88.6 1005 0 0 -- --
1970 11 1 12 -9.9 88.9 1004 0 0 -- --
1970 11 1 15 -10.0 89.0 1003 0 0 -- --
1970 11 1 18 -10.1 89.2 1003 0 0 -- --
1970 11 1 21 -10.2 89.4 1002 0 0 -- --
1970 11 2 00 -10.4 89.5 1002 0 0 -- --
1970 11 2 03 -10.6 89.5 1002 0 0 -- --
1970 11 2 06 -10.8 89.5 1002 0 0 -- --
1970 11 2 09 -10.9 89.6 1002 0 0 -- --
1970 11 2 12 -11.0 89.6 1001 0 0 -- --
1970 11 2 15 -11.1 89.7 1001 0 0 -- --
1970 11 2 18 -11.2 89.8 1001 0 0 -- --
1970 11 2 21 -11.3 89.8 1000 0 0 -- --
1970 11 3 00 -11.4 89.8 1000 0 0 -- --
1970 11 3 03 -11.5 89.8 999 0 0 -- --
1970 11 3 06 -11.6 89.8 999 0 0 -- --
1970 11 3 09 -11.8 89.8 998 0 0 -- --
1970 11 3 12 -11.9 89.8 998 0 0 -- --
1970 11 3 15 -12.0 89.8 997 0 0 -- --
1970 11 3 18 -12.2 89.8 996 0 0 -- --
1970 11 3 21 -12.3 89.8 996 0 0 -- --
1970 11 4 00 -12.5 89.8 995 0 0 -- --
1970 11 4 03 -12.7 89.7 995 0 0 -- --
1970 11 4 06 -13.0 89.6 995 0 0 -- --
1970 11 4 09 -13.3 89.4 995 0 0 -- --
1970 11 4 12 -13.5 89.3 995 0 0 -- --
1970 11 4 15 -13.7 89.1 995 0 0 -- --
1970 11 4 18 -13.9 89.0 994 0 0 -- --
1970 11 4 21 -14.1 88.9 994 0 0 -- --
1970 11 5 00 -14.2 88.7 994 0 0 -- --
1970 11 5 03 -14.3 89.1 991 0 0 -- --
1970 11 5 06 -14.4 89.6 988 0 0 -- --
1970 11 5 09 -14.5 90.0 985 0 0 -- --
1970 11 5 12 -14.7 91.0 982 0 0 -- --
1970 11 5 15 -14.9 91.0 979 0 0 -- --
1970 11 5 18 -15.1 91.0 976 0 0 -- --
1970 11 5 21 -15.3 91.7 973 0 0 -- --
1970 11 6 00 -15.4 92.5 970 0 0 -- --
1970 11 6 03 -15.5 92.4 972 0 0 -- --
1970 11 6 06 -15.6 92.3 974 0 0 -- --
1970 11 6 09 -15.7 92.2 975 0 0 -- --
1970 11 6 12 -15.9 92.0 976 0 0 -- --
1970 11 6 15 -16.0 91.9 977 0 0 -- --
1970 11 6 18 -16.1 91.7 978 0 0 -- --
1970 11 6 21 -16.2 91.6 979 0 0 -- --
1970 11 7 00 -16.4 91.5 980 0 0 -- --
1970 11 7 03 -16.6 91.2 982 0 0 -- --
1970 11 7 06 -16.8 91.0 984 0 0 -- --
1970 11 7 09 -17.1 90.8 986 0 0 -- --
1970 11 7 12 -17.3 90.6 988 0 0 -- --
1970 11 7 15 -17.5 90.4 990 0 0 -- --
1970 11 7 18 -17.6 90.0 992 0 0 -- --
1970 11 7 21 -17.7 89.9 994 0 0 -- --
1970 11 8 00 -17.9 89.8 998 0 0 -- --
1970 11 8 03 -18.2 89.4 998 0 0 -- --
1970 11 8 06 -18.5 89.0 998 0 0 -- --
1970 11 8 09 -18.9 88.6 999 0 0 -- --
1970 11 8 12 -19.2 88.2 999 0 0 -- --
1970 11 8 15 -19.5 88.0 999 0 0 -- --
1970 11 8 18 -19.6 87.6 999 0 0 -- --
1970 11 8 21 -19.8 87.2 999 0 0 -- --
1970 11 9 00 -19.9 87.0 1000 0 0 -- --
1970 11 9 03 -19.8 86.5 1001 0 0 -- --
1970 11 9 06 -19.7 86.0 1002 0 0 -- --
1970 11 9 09 -19.6 85.0 1003 0 0 -- --
1970 11 9 12 -19.5 84.0 1004 0 0 -- --
1970 11 9 15 -19.4 83.0 1005 0 0 -- --
1970 11 9 18 -19.3 82.5 1006 0 0 -- --
1970 11 9 21 -19.2 82.0 1007 0 0 -- --
1970 11 10 00 -19.2 81.0 1008 0 0 -- --
1970 11 10 03 -18.8 80.0 1008 0 0 -- --
1970 11 10 06 -18.3 79.0 1008 0 0 -- --
< Cyclone 197013 1971 Season Cyclone 197102 >

Help